createdAt,value
2023-04-29T00:02:46.038Z,100.00
2023-04-29T00:05:33.871Z,100.00
2023-04-29T00:08:22.039Z,100.00
2023-04-29T00:11:11.411Z,100.00
2023-04-29T00:14:02.636Z,100.00
2023-04-29T00:16:50.595Z,100.00
2023-04-29T00:19:38.550Z,100.00
2023-04-29T00:22:26.710Z,100.00
2023-04-29T00:25:14.859Z,100.00
2023-04-29T00:28:03.405Z,100.00
2023-04-29T00:30:53.381Z,100.00
2023-04-29T00:33:41.052Z,100.00
2023-04-29T00:36:29.410Z,100.00
2023-04-29T00:39:17.136Z,100.00
2023-04-29T00:42:05.064Z,100.00
2023-04-29T00:44:52.994Z,100.00
2023-04-29T00:47:42.453Z,100.00
2023-04-29T00:50:30.798Z,100.00
2023-04-29T00:53:18.619Z,100.00
2023-04-29T00:56:07.512Z,100.00
2023-04-29T00:58:55.889Z,100.00
2023-04-29T01:01:44.718Z,100.00
2023-04-29T01:04:33.970Z,100.00
2023-04-29T01:07:31.165Z,100.00
2023-04-29T01:10:28.748Z,100.00
2023-04-29T01:13:21.779Z,100.00
2023-04-29T01:16:18.615Z,100.00
2023-04-29T01:19:17.914Z,100.00
2023-04-29T01:22:07.223Z,100.00
2023-04-29T01:24:59.040Z,100.00
2023-04-29T01:27:53.942Z,100.00
2023-04-29T01:30:51.402Z,100.00
2023-04-29T01:33:55.839Z,100.00
2023-04-29T01:37:02.460Z,100.00
2023-04-29T01:40:06.673Z,100.00
2023-04-29T01:43:03.971Z,100.00
2023-04-29T01:45:53.421Z,100.00
2023-04-29T01:48:41.663Z,100.00
2023-04-29T01:51:29.825Z,100.00
2023-04-29T01:54:17.787Z,100.00
2023-04-29T01:57:07.029Z,100.00
2023-04-29T01:59:54.900Z,100.00
2023-04-29T02:02:42.788Z,100.00
2023-04-29T02:05:32.505Z,100.00
2023-04-29T02:08:20.544Z,100.00
2023-04-29T02:11:08.502Z,100.00
2023-04-29T02:13:57.882Z,100.00
2023-04-29T02:16:46.517Z,100.00
2023-04-29T02:19:34.261Z,100.00
2023-04-29T02:22:22.300Z,100.00
2023-04-29T02:25:19.517Z,100.00
2023-04-29T02:28:07.318Z,100.00
2023-04-29T02:30:56.992Z,100.00
2023-04-29T02:33:45.003Z,100.00
2023-04-29T02:36:33.353Z,100.00
2023-04-29T02:39:21.111Z,100.00
2023-04-29T02:42:09.093Z,100.00
2023-04-29T02:44:57.000Z,100.00
2023-04-29T02:47:46.320Z,100.00
2023-04-29T02:50:34.184Z,100.00
2023-04-29T02:53:24.768Z,100.00
2023-04-29T02:56:12.733Z,100.00
2023-04-29T02:59:00.644Z,100.00
2023-04-29T03:01:48.662Z,100.00
2023-04-29T03:04:39.993Z,100.00
2023-04-29T03:07:29.953Z,100.00
2023-04-29T03:10:18.158Z,100.00
2023-04-29T03:13:06.193Z,100.00
2023-04-29T03:15:54.130Z,100.00
2023-04-29T03:18:42.059Z,100.00
2023-04-29T03:21:31.350Z,100.00
2023-04-29T03:24:19.223Z,100.00
2023-04-29T03:27:07.338Z,100.00
2023-04-29T03:29:55.532Z,100.00
2023-04-29T03:32:43.923Z,100.00
2023-04-29T03:35:31.942Z,100.00
2023-04-29T03:38:21.312Z,100.00
2023-04-29T03:41:10.293Z,100.00
2023-04-29T03:44:00.757Z,100.00
2023-04-29T03:46:48.865Z,100.00
2023-04-29T03:49:37.580Z,100.00
2023-04-29T03:52:25.753Z,100.00
2023-04-29T03:55:14.842Z,100.00
2023-04-29T03:58:02.485Z,100.00
2023-04-29T04:00:50.591Z,100.00
2023-04-29T04:03:38.775Z,100.00
2023-04-29T04:06:27.067Z,100.00
2023-04-29T04:09:14.587Z,100.00
2023-04-29T04:12:03.965Z,100.00
2023-04-29T04:14:51.808Z,100.00
2023-04-29T04:17:40.358Z,100.00
2023-04-29T04:20:28.175Z,100.00
2023-04-29T04:23:16.261Z,100.00
2023-04-29T04:26:04.069Z,100.00
2023-04-29T04:28:53.107Z,100.00
2023-04-29T04:31:41.287Z,100.00
2023-04-29T04:34:29.187Z,100.00
2023-04-29T04:37:17.630Z,100.00
2023-04-29T04:40:06.597Z,100.00
2023-04-29T04:42:55.221Z,100.00
2023-04-29T04:45:44.409Z,100.00
2023-04-29T04:48:32.241Z,100.00
2023-04-29T04:51:20.858Z,100.00
2023-04-29T04:54:08.689Z,100.00
2023-04-29T04:56:56.597Z,100.00
2023-04-29T04:59:44.560Z,100.00
2023-04-29T05:02:34.064Z,100.00
2023-04-29T05:05:21.890Z,100.00
2023-04-29T05:08:09.636Z,100.00
2023-04-29T05:10:58.401Z,100.00
2023-04-29T05:13:46.068Z,100.00
2023-04-29T05:16:34.244Z,100.00
2023-04-29T05:19:23.578Z,100.00
2023-04-29T05:22:11.579Z,100.00
2023-04-29T05:25:03.001Z,100.00
2023-04-29T05:27:51.471Z,100.00
2023-04-29T05:30:39.610Z,100.00
2023-04-29T05:33:27.268Z,100.00
2023-04-29T05:36:16.593Z,100.00
2023-04-29T05:39:04.643Z,100.00
2023-04-29T05:41:52.732Z,100.00
2023-04-29T05:44:40.715Z,100.00
2023-04-29T05:47:28.987Z,100.00
2023-04-29T05:50:17.177Z,100.00
2023-04-29T05:53:06.250Z,100.00
2023-04-29T05:55:54.088Z,100.00
2023-04-29T05:58:42.117Z,100.00
2023-04-29T06:01:30.189Z,100.00
2023-04-29T06:04:18.442Z,100.00
2023-04-29T06:07:06.138Z,100.00
2023-04-29T06:09:56.950Z,100.00
2023-04-29T06:12:44.989Z,100.00
2023-04-29T06:15:33.345Z,100.00
2023-04-29T06:18:21.365Z,100.00
2023-04-29T06:21:09.432Z,100.00
2023-04-29T06:23:57.443Z,100.00
2023-04-29T06:26:46.966Z,100.00
2023-04-29T06:29:34.809Z,100.00
2023-04-29T06:32:22.913Z,100.00
2023-04-29T06:35:11.286Z,100.00
2023-04-29T06:37:59.599Z,100.00
2023-04-29T06:40:47.646Z,100.00
2023-04-29T06:43:37.176Z,100.00
2023-04-29T06:46:24.932Z,100.00
2023-04-29T06:49:13.251Z,100.00
2023-04-29T06:52:02.244Z,100.00
2023-04-29T06:54:50.327Z,100.00
2023-04-29T06:57:38.451Z,100.00
2023-04-29T07:00:27.428Z,100.00
2023-04-29T07:03:15.587Z,100.00
2023-04-29T07:06:06.134Z,100.00
2023-04-29T07:08:55.498Z,100.00
2023-04-29T07:11:44.694Z,100.00
2023-04-29T07:14:33.043Z,100.00
2023-04-29T07:17:22.118Z,100.00
2023-04-29T07:20:11.178Z,100.00
2023-04-29T07:22:58.934Z,100.00
2023-04-29T07:25:47.053Z,100.00
2023-04-29T07:28:34.937Z,100.00
2023-04-29T07:31:22.941Z,100.00
2023-04-29T07:34:12.446Z,100.00
2023-04-29T07:37:00.680Z,100.00
2023-04-29T07:39:48.687Z,100.00
2023-04-29T07:42:36.466Z,100.00
2023-04-29T07:45:24.344Z,100.00
2023-04-29T07:48:12.318Z,100.00
2023-04-29T07:51:01.744Z,100.00
2023-04-29T07:53:49.663Z,100.00
2023-04-29T07:56:37.678Z,100.00
2023-04-29T07:59:25.382Z,100.00
2023-04-29T08:02:13.861Z,100.00
2023-04-29T08:05:02.947Z,100.00
2023-04-29T08:07:53.333Z,100.00
2023-04-29T08:10:43.915Z,100.00
2023-04-29T08:13:32.039Z,100.00
2023-04-29T08:16:21.628Z,100.00
2023-04-29T08:19:09.535Z,100.00
2023-04-29T08:21:57.420Z,100.00
2023-04-29T08:24:46.812Z,100.00
2023-04-29T08:27:34.927Z,100.00
2023-04-29T08:30:22.832Z,100.00
2023-04-29T08:33:13.119Z,100.00
2023-04-29T08:36:03.586Z,100.00
2023-04-29T08:38:52.701Z,100.00
2023-04-29T08:41:44.194Z,100.00
2023-04-29T08:44:34.101Z,100.00
2023-04-29T08:47:23.390Z,100.00
2023-04-29T08:50:20.934Z,100.00
2023-04-29T08:53:09.177Z,100.00
2023-04-29T08:55:59.234Z,100.00
2023-04-29T08:58:51.930Z,100.00
2023-04-29T09:01:41.934Z,100.00
2023-04-29T09:04:39.204Z,100.00
2023-04-29T09:07:28.441Z,100.00
2023-04-29T09:10:17.015Z,100.00
2023-04-29T09:13:05.346Z,100.00
2023-04-29T09:15:55.277Z,100.00
2023-04-29T09:18:47.591Z,100.00
2023-04-29T09:21:56.884Z,100.00
2023-04-29T09:24:45.594Z,100.00
2023-04-29T09:27:34.623Z,100.00
2023-04-29T09:30:48.199Z,100.00
2023-04-29T09:36:48.207Z,100.00
2023-04-29T09:39:54.854Z,100.00
2023-04-29T09:43:06.937Z,100.00
2023-04-29T09:46:38.408Z,100.00
2023-04-29T09:49:30.838Z,100.00
2023-04-29T09:52:38.641Z,100.00
2023-04-29T09:55:36.225Z,100.00
2023-04-29T09:58:46.473Z,100.00
2023-04-29T10:03:01.024Z,100.00
2023-04-29T10:05:23.205Z,100.00
2023-04-29T10:08:13.014Z,100.00
2023-04-29T10:11:28.670Z,100.00
2023-04-29T10:14:58.065Z,100.00
2023-04-29T10:18:16.773Z,100.00
2023-04-29T10:21:10.588Z,100.00
2023-04-29T10:24:03.537Z,100.00
2023-04-29T10:26:54.037Z,100.00
2023-04-29T10:29:50.900Z,100.00
2023-04-29T10:32:50.599Z,100.00
2023-04-29T10:35:40.518Z,100.00
2023-04-29T10:38:32.332Z,100.00
2023-04-29T10:41:25.509Z,100.00
2023-04-29T10:44:13.399Z,100.00
2023-04-29T10:47:20.459Z,100.00
2023-04-29T10:50:09.078Z,100.00
2023-04-29T10:52:57.871Z,100.00
2023-04-29T10:55:49.812Z,100.00
2023-04-29T10:58:44.533Z,100.00
2023-04-29T11:01:59.568Z,100.00
2023-04-29T11:05:08.495Z,100.00
2023-04-29T11:08:12.749Z,100.00
2023-04-29T11:11:03.976Z,100.00
2023-04-29T11:13:53.746Z,100.00
2023-04-29T11:16:49.880Z,100.00
2023-04-29T11:19:42.188Z,100.00
2023-04-29T11:22:33.680Z,100.00
2023-04-29T11:25:23.656Z,100.00
2023-04-29T11:28:12.905Z,100.00
2023-04-29T11:31:03.800Z,99.62
2023-04-29T11:33:51.727Z,99.73
2023-04-29T11:36:39.420Z,97.57
2023-04-29T11:39:27.868Z,96.78
2023-04-29T11:42:20.424Z,96.41
2023-04-29T11:45:09.363Z,95.93
2023-04-29T11:47:58.880Z,96.65
2023-04-29T11:50:47.796Z,95.76
2023-04-29T11:53:38.865Z,94.73
2023-04-29T11:56:27.152Z,94.15
2023-04-29T11:59:15.066Z,94.29
2023-04-29T12:02:03.355Z,94.51
2023-04-29T12:04:53.149Z,94.20
2023-04-29T12:07:41.499Z,93.98
2023-04-29T12:10:29.869Z,95.63
2023-04-29T12:13:19.611Z,95.54
2023-04-29T12:16:11.427Z,94.01
2023-04-29T12:19:01.074Z,92.42
2023-04-29T12:21:58.338Z,92.91
2023-04-29T12:24:46.261Z,94.02
2023-04-29T12:27:34.966Z,95.31
2023-04-29T12:30:23.124Z,95.41
2023-04-29T12:33:12.728Z,96.07
2023-04-29T12:36:02.083Z,96.39
2023-04-29T12:38:54.573Z,96.03
2023-04-29T12:41:44.211Z,96.00
2023-04-29T12:44:37.980Z,96.80
2023-04-29T12:47:33.291Z,96.61
2023-04-29T12:50:21.880Z,96.11
2023-04-29T12:53:11.796Z,95.98
2023-04-29T12:56:01.639Z,95.90
2023-04-29T12:58:49.949Z,95.70
2023-04-29T13:01:38.042Z,95.39
2023-04-29T13:04:26.132Z,94.68
2023-04-29T13:07:14.195Z,93.67
2023-04-29T13:10:02.506Z,92.92
2023-04-29T13:12:52.128Z,92.29
2023-04-29T13:15:40.180Z,90.04
2023-04-29T13:18:28.032Z,89.49
2023-04-29T13:21:16.491Z,89.12
2023-04-29T13:24:04.264Z,89.24
2023-04-29T13:26:53.042Z,89.63
2023-04-29T13:29:42.558Z,89.83
2023-04-29T13:32:43.231Z,89.23
2023-04-29T13:35:35.985Z,89.34
2023-04-29T13:38:23.985Z,89.65
2023-04-29T13:41:16.864Z,90.14
2023-04-29T13:44:07.659Z,90.78
2023-04-29T13:47:08.293Z,91.66
2023-04-29T14:01:55.250Z,92.17
2023-04-29T14:04:29.847Z,91.55
2023-04-29T14:07:17.933Z,91.97
2023-04-29T14:10:06.672Z,91.87
2023-04-29T14:12:54.604Z,92.37
2023-04-29T14:15:42.711Z,93.07
2023-04-29T14:18:30.735Z,94.11
2023-04-29T14:21:22.458Z,94.40
2023-04-29T14:24:10.517Z,95.32
2023-04-29T14:26:59.134Z,95.25
2023-04-29T14:29:47.441Z,95.78
2023-04-29T14:32:35.702Z,96.22
2023-04-29T14:35:24.148Z,97.59
2023-04-29T14:38:14.390Z,98.71
2023-04-29T14:41:02.554Z,99.47
2023-04-29T14:43:50.552Z,99.90
2023-04-29T14:46:38.682Z,100.00
2023-04-29T14:49:26.706Z,100.00
2023-04-29T14:52:14.569Z,100.00
2023-04-29T14:55:04.502Z,100.00
2023-04-29T14:57:52.215Z,100.00
2023-04-29T15:00:40.299Z,100.00
2023-04-29T15:03:28.273Z,100.00
2023-04-29T15:06:16.469Z,100.00
2023-04-29T15:09:04.947Z,100.00
2023-04-29T15:11:54.385Z,100.00
2023-04-29T15:14:42.456Z,100.00
2023-04-29T15:17:30.413Z,100.00
2023-04-29T15:20:18.377Z,100.00
2023-04-29T15:23:08.436Z,100.00
2023-04-29T15:25:57.529Z,100.00
2023-04-29T15:28:47.216Z,100.00
2023-04-29T15:31:35.195Z,100.00
2023-04-29T15:34:23.258Z,100.00
2023-04-29T15:37:11.467Z,100.00
2023-04-29T15:40:00.641Z,100.00
2023-04-29T15:42:48.738Z,100.00
2023-04-29T15:45:42.194Z,100.00
2023-04-29T15:48:32.145Z,100.00
2023-04-29T15:51:20.230Z,100.00
2023-04-29T15:54:08.353Z,100.00
2023-04-29T15:56:57.566Z,100.00
2023-04-29T15:59:45.640Z,100.00
2023-04-29T16:02:35.099Z,100.00
2023-04-29T16:05:22.969Z,100.00
2023-04-29T16:08:11.120Z,100.00
2023-04-29T16:10:59.552Z,100.00
2023-04-29T16:13:47.954Z,100.00
2023-04-29T16:16:36.121Z,100.00
2023-04-29T16:19:25.324Z,100.00
2023-04-29T16:22:13.405Z,100.00
2023-04-29T16:25:01.715Z,100.00
2023-04-29T16:27:49.747Z,100.00
2023-04-29T16:30:38.020Z,100.00
2023-04-29T16:33:26.099Z,100.00
2023-04-29T16:36:15.794Z,100.00
2023-04-29T16:39:04.594Z,100.00
2023-04-29T16:41:52.795Z,100.00
2023-04-29T16:44:40.825Z,100.00
2023-04-29T16:47:28.937Z,100.00
2023-04-29T16:50:19.673Z,100.00
2023-04-29T16:53:09.021Z,100.00
2023-04-29T16:55:57.428Z,100.00
2023-04-29T16:58:45.761Z,100.00
2023-04-29T17:01:33.474Z,100.00
2023-04-29T17:04:21.445Z,100.00
2023-04-29T17:07:10.074Z,100.00
2023-04-29T17:09:59.237Z,100.00
2023-04-29T17:12:47.261Z,100.00
2023-04-29T17:15:35.556Z,100.00
2023-04-29T17:18:23.717Z,100.00
2023-04-29T17:21:11.693Z,100.00
2023-04-29T17:24:00.021Z,100.00
2023-04-29T17:26:49.883Z,100.00
2023-04-29T17:29:38.471Z,100.00
2023-04-29T17:32:29.325Z,100.00
2023-04-29T17:35:17.361Z,100.00
2023-04-29T17:38:05.670Z,100.00
2023-04-29T17:40:53.507Z,100.00
2023-04-29T17:43:43.044Z,100.00
2023-04-29T17:46:31.433Z,100.00
2023-04-29T17:49:19.558Z,100.00
2023-04-29T17:52:09.996Z,100.00
2023-04-29T17:54:57.972Z,100.00
2023-04-29T17:57:46.340Z,100.00
2023-04-29T18:00:36.192Z,100.00
2023-04-29T18:03:27.109Z,100.00
2023-04-29T18:06:15.911Z,100.00
2023-04-29T18:09:04.084Z,100.00
2023-04-29T18:11:52.391Z,100.00
2023-04-29T18:14:40.465Z,100.00
2023-04-29T18:17:29.977Z,100.00
2023-04-29T18:20:18.033Z,100.00
2023-04-29T18:23:06.453Z,100.00
2023-04-29T18:25:54.830Z,100.00
2023-04-29T18:28:43.303Z,100.00
2023-04-29T18:31:31.650Z,100.00
2023-04-29T18:34:20.858Z,100.00
2023-04-29T18:37:08.811Z,100.00
2023-04-29T18:39:56.924Z,100.00
2023-04-29T18:42:45.237Z,100.00
2023-04-29T18:45:33.320Z,100.00
2023-04-29T18:48:21.453Z,100.00
2023-04-29T18:51:11.100Z,100.00
2023-04-29T18:53:59.130Z,100.00
2023-04-29T18:56:48.899Z,100.00
2023-04-29T18:59:38.014Z,100.00
2023-04-29T19:02:26.389Z,100.00
2023-04-29T19:05:14.448Z,100.00
2023-04-29T19:08:03.896Z,100.00
2023-04-29T19:10:53.376Z,100.00
2023-04-29T19:13:41.185Z,100.00
2023-04-29T19:16:29.410Z,100.00
2023-04-29T19:19:17.416Z,100.00
2023-04-29T19:22:05.519Z,100.00
2023-04-29T19:24:54.751Z,100.00
2023-04-29T19:27:45.071Z,100.00
2023-04-29T19:30:33.541Z,100.00
2023-04-29T19:33:21.402Z,100.00
2023-04-29T19:36:11.357Z,100.00
2023-04-29T19:38:59.533Z,100.00
2023-04-29T19:41:48.605Z,100.00
2023-04-29T19:44:36.413Z,100.00
2023-04-29T19:47:24.885Z,100.00
2023-04-29T19:50:12.944Z,100.00
2023-04-29T19:53:01.164Z,100.00
2023-04-29T19:55:51.594Z,100.00
2023-04-29T19:58:41.101Z,100.00
2023-04-29T20:01:29.172Z,100.00
2023-04-29T20:04:16.948Z,100.00
2023-04-29T20:07:04.809Z,100.00
2023-04-29T20:09:52.838Z,100.00
2023-04-29T20:12:40.715Z,100.00
2023-04-29T20:15:30.776Z,100.00
2023-04-29T20:18:18.983Z,100.00
2023-04-29T20:21:06.928Z,100.00
2023-04-29T20:23:54.831Z,100.00
2023-04-29T20:26:42.702Z,100.00
2023-04-29T20:29:30.589Z,100.00
2023-04-29T20:32:19.962Z,100.00
2023-04-29T20:35:08.246Z,100.00
2023-04-29T20:37:56.592Z,100.00
2023-04-29T20:40:44.556Z,100.00
2023-04-29T20:43:33.168Z,100.00
2023-04-29T20:46:21.166Z,100.00
2023-04-29T20:49:10.704Z,100.00
2023-04-29T20:51:58.821Z,100.00
2023-04-29T20:54:47.101Z,100.00
2023-04-29T20:57:35.165Z,100.00
2023-04-29T21:00:23.062Z,100.00
2023-04-29T21:03:11.517Z,100.00
2023-04-29T21:06:01.215Z,100.00
2023-04-29T21:08:49.426Z,100.00
2023-04-29T21:11:37.193Z,100.00
2023-04-29T21:14:25.422Z,100.00
2023-04-29T21:17:13.869Z,100.00
2023-04-29T21:20:01.744Z,100.00
2023-04-29T21:22:51.342Z,100.00
2023-04-29T21:25:39.513Z,100.00
2023-04-29T21:28:27.819Z,100.00
2023-04-29T21:31:16.563Z,100.00
2023-04-29T21:34:04.546Z,100.00
2023-04-29T21:36:52.251Z,100.00
2023-04-29T21:39:41.849Z,100.00
2023-04-29T21:42:30.012Z,100.00
2023-04-29T21:45:18.523Z,100.00
2023-04-29T21:48:15.638Z,100.00
2023-04-29T21:51:05.299Z,100.00
2023-04-29T21:53:53.713Z,100.00
2023-04-29T21:56:43.196Z,100.00
2023-04-29T21:59:34.311Z,100.00
2023-04-29T22:02:25.123Z,100.00
2023-04-29T22:05:13.127Z,100.00
2023-04-29T22:08:03.115Z,100.00
2023-04-29T22:10:51.252Z,100.00
2023-04-29T22:13:40.704Z,100.00
2023-04-29T22:16:28.432Z,100.00
2023-04-29T22:19:16.686Z,100.00
2023-04-29T22:22:04.773Z,100.00
2023-04-29T22:24:52.608Z,100.00
2023-04-29T22:27:40.550Z,100.00
2023-04-29T22:30:29.836Z,100.00
2023-04-29T22:33:17.742Z,100.00
2023-04-29T22:36:06.107Z,100.00
2023-04-29T22:38:54.280Z,100.00
2023-04-29T22:41:42.228Z,100.00
2023-04-29T22:44:30.248Z,100.00
2023-04-29T22:47:19.701Z,100.00
2023-04-29T22:50:08.786Z,100.00
2023-04-29T22:52:56.584Z,100.00
2023-04-29T22:55:51.576Z,100.00
2023-04-29T22:58:39.531Z,100.00
2023-04-29T23:01:27.246Z,100.00
2023-04-29T23:04:16.644Z,100.00
2023-04-29T23:07:04.581Z,100.00
2023-04-29T23:09:53.270Z,100.00
2023-04-29T23:12:41.140Z,100.00
2023-04-29T23:15:29.690Z,100.00
2023-04-29T23:18:17.423Z,100.00
2023-04-29T23:21:07.184Z,100.00
2023-04-29T23:23:55.707Z,100.00
2023-04-29T23:26:43.669Z,100.00
2023-04-29T23:29:34.246Z,100.00
2023-04-29T23:32:22.223Z,100.00
2023-04-29T23:35:11.350Z,100.00
2023-04-29T23:38:00.667Z,100.00
2023-04-29T23:40:48.890Z,100.00
2023-04-29T23:43:36.925Z,100.00
2023-04-29T23:46:25.506Z,100.00
2023-04-29T23:49:13.346Z,100.00
2023-04-29T23:52:01.397Z,100.00
2023-04-29T23:54:50.784Z,100.00
2023-04-29T23:57:38.782Z,100.00
